x

West Oregon - 275nm West Of Coos Bay, Or (46002) Wave Buoy

11:50am - Fri 28th Nov 2014 All times are UTC.

  • Sig Wave height 11.2ft
  • Peak Period 12s
  • Average Period 8s
  • Wind
    18mph, 22mph gusts
  • Sea Temp 60°f
  • Air Temp 59°f
  • Sea Pressure 1003.3mb

More Historic Weather Station data

Upgrade to MSW Pro to gain access to the past 30 days of data for over 8000 Wavebouys and Weather Stations around the globe.

Join Pro

Comparision Forecast

View Surf forecast
   
Fri 11/28 11:50am 11ft 12s 8s 18 22 mph 1003.3mb 60f 59f
10:50am  -   -   -  20 25 mph 1003.5mb 60f 58f
9:50am 13ft 12s 8s 22 29 mph 1003.2mb 60f 60f
8:50am 12ft 13s 8s 22 27 mph 1003.9mb 60f 60f
7:50am 12.5ft 12s 8s 22 25 mph 1004.7mb 60f 60f
6:50am 14ft 12s 9s 20 25 mph 1005.3mb 60f 60f
5:50am 13ft 14s 9s 20 25 mph 1005.6mb 60f 60f
4:50am 12.5ft 13s 9s 20 27 mph 1005.9mb 60f 60f
3:50am 12.5ft 12s 9s 18 20 mph 1006.4mb 60f 60f
2:50am 14ft 14s 9s 16 20 mph 1006.8mb 60f 60f
1:50am 13ft 14s 9s 18 22 mph 1006.9mb 60f 60f
12:50am 14ft 14s 9s 18 22 mph 1007.6mb 60f 60f
Thu 11/27 11:50pm 14ft 13s 9s 20 25 mph 1007.8mb 60f 61f
10:50pm 17ft 14s 10s 18 22 mph 1008.1mb 60f 60f
9:50pm 14.5ft 15s 9s 20 25 mph 1008.7mb 60f 60f
8:50pm 15.5ft 14s 10s 20 22 mph 1009.2mb 60f 60f
7:50pm 15ft 14s 9s 18 22 mph 1009.9mb 60f 60f
6:50pm 14ft 15s 9s 20 22 mph 1010.5mb 60f 60f
5:50pm 14ft 14s 9s 18 22 mph 1010.6mb 60f 60f
4:50pm 14ft 14s 9s 18 20 mph 1010.5mb 60f 60f
3:50pm 15.5ft 15s 10s 20 25 mph 1010.1mb 60f 60f
2:50pm 14.5ft 14s 9s 20 25 mph 1009.8mb 60f 60f
1:50pm  -   -   -  20 22 mph 1009.8mb 60f 60f
12:50pm  -   -   -  20 27 mph 1009.9mb 60f 60f
11:50am 12.5ft 15s 8s 22 27 mph 1010mb 60f 60f
10:50am 11ft 16s 8s 22 27 mph 1010.1mb 60f 61f
9:50am 9.5ft 12s 7s 22 27 mph 1010.3mb 60f 60f
8:50am 10ft 12s 7s 20 25 mph 1010.6mb 60f 60f
7:50am 10ft 11s 7s 22 29 mph 1010.5mb 60f 61f
6:50am 9ft 11s 7s 22 25 mph 1010.4mb 60f 61f
5:50am 12ft 11s 8s 22 27 mph 1010mb 60f 60f
4:50am 11.5ft 10s 8s 20 22 mph 1010mb 60f 61f
3:50am 11ft 12s 8s 20 27 mph 1009.8mb 60f 61f
2:50am 12ft 11s 8s 22 27 mph 1009.6mb 60f 60f
1:50am 11.5ft 11s 7s 22 27 mph 1009.4mb 60f 60f
12:50am 12.5ft 11s 8s 22 27 mph 1009.4mb 60f 60f
Wed 11/26 11:50pm 12.5ft 10s 7s 22 27 mph 1009.5mb 60f 60f
10:50pm 12ft 11s 7s 20 25 mph 1009.4mb 60f 59f
9:50pm 12.5ft 11s 7s 20 25 mph 1010.2mb 60f 59f
8:50pm 12ft 9s 7s 27 34 mph 1009.7mb 60f 61f
7:50pm 12.5ft 10s 7s 29 36 mph 1010.5mb 60f 62f
6:50pm 11.5ft 8s 7s 31 36 mph 1011.7mb 60f 62f
5:50pm 11ft 9s 7s 29 38 mph 1012.3mb 59f 61f
4:50pm 11ft 10s 6s 29 36 mph 1013.2mb 59f 61f
3:50pm 10.5ft 9s 6s 27 36 mph 1013.4mb 59f 61f
2:50pm 10ft 9s 6s 27 34 mph 1013.7mb 59f 61f
1:50pm 10ft 8s 6s 25 29 mph 1014mb 59f 61f
12:50pm 10ft 8s 6s 25 31 mph 1015mb 59f 61f
11:50am 9ft 8s 6s 25 31 mph 1016.9mb 59f 61f
10:50am 9ft 8s 6s 25 29 mph 1017.5mb 59f 61f
9:50am 8.5ft 8s 6s 25 29 mph 1017.8mb 59f 61f
8:50am 7.5ft 11s 6s 20 25 mph 1018.9mb 59f 61f
7:50am 7ft 13s 6s 20 27 mph 1019.2mb 59f 61f
6:50am 8ft 12s 7s 20 25 mph 1020.6mb 59f 61f
5:50am 7ft 12s 6s 18 20 mph 1021.3mb 59f 61f
4:50am 7ft 11s 6s 18 20 mph 1021.8mb 60f 61f
3:50am 7ft 11s 6s 20 22 mph 1022mb 60f 62f
2:50am 7ft 11s 6s 18 22 mph 1022.4mb 60f 61f
1:50am 7.5ft 12s 6s 20 25 mph 1022.2mb 60f 61f
12:50am 7.5ft 12s 6s 22 27 mph 1022.5mb 60f 62f
Tue 11/25 11:50pm 8ft 12s 6s 25 31 mph 1023mb 60f 62f
10:50pm 7.5ft 12s 6s 22 29 mph 1023.5mb 60f 62f
9:50pm 7ft 11s 7s 18 22 mph 1024.4mb 60f 62f
8:50pm 8ft 12s 7s 20 25 mph 1024.9mb 60f 61f
7:50pm 8ft 12s 7s 18 22 mph 1025.5mb 60f 61f
6:50pm 7.5ft 13s 8s 16 18 mph 1026.6mb 60f 61f
5:50pm 8ft 12s 8s 13 16 mph 1027mb 60f 61f
4:50pm 7.5ft 13s 7s 13 16 mph 1027.2mb 60f 60f
3:50pm 8ft 12s 8s 20 25 mph 1027.2mb 60f 59f
2:50pm 7ft 13s 9s 20 22 mph 1026.6mb 60f 60f
1:50pm 8ft 13s 9s 13 16 mph 1026.4mb 60f 60f
12:50pm 8ft 12s 9s 11 13 mph 1026.8mb 60f 61f
11:50am 8ft 12s 9s 9 11 mph 1026.9mb 60f 61f
10:50am 8ft 14s 8s 11 13 mph 1027mb 60f 61f
9:50am 8ft 14s 8s 11 13 mph 1027mb 60f 60f
8:50am 8ft 13s 8s 13 16 mph 1027.1mb 60f 60f
7:50am 9ft 14s 9s 11 13 mph 1027.6mb 60f 60f
6:50am 10ft 13s 9s 16 18 mph 1027.5mb 60f 60f
5:50am 9ft 14s 9s 11 13 mph 1027.4mb 60f 60f
4:50am 9.5ft 14s 9s 9 11 mph 1027mb 60f 61f
3:50am 9ft 14s 9s 13 16 mph 1026.9mb 60f 60f
2:50am 10ft 13s 9s 13 16 mph 1026.6mb 60f 60f
1:50am 9ft 12s 9s 16 20 mph 1025.9mb 60f 60f
12:50am 9.5ft 13s 9s 16 20 mph 1025.7mb 60f 60f
Mon 11/24 11:50pm  -   -   -  16 20 mph 1025.3mb 60f 60f
10:50pm 9ft 13s 9s 16 20 mph 1024.8mb 60f 61f
9:50pm 9.5ft 14s 9s 16 18 mph 1024.8mb 60f 61f
8:50pm 10ft 12s 9s 16 18 mph 1025.1mb 60f 61f
7:50pm 10.5ft 14s 9s 16 18 mph 1025.3mb 60f 61f
6:50pm 10ft 14s 9s 16 18 mph 1025.3mb 59f 61f
5:50pm 9.5ft 14s 8s 13 18 mph 1025mb 60f 60f
4:50pm 9.5ft 13s 9s 13 16 mph 1024.6mb 60f 60f
3:50pm 10ft 14s 9s 13 16 mph 1023.8mb 59f 60f
2:50pm 9ft 13s 9s 13 16 mph 1023.3mb 59f 60f
1:50pm 9.5ft 12s 9s 11 13 mph 1023.1mb 59f 60f
12:50pm 11ft 14s 9s 11 16 mph 1022.7mb 59f 59f